sensor_id;sensor_type;location;lat;lon;timestamp;P1;durP1;ratioP1;P2;durP2;ratioP2
16600;SDS011;34891;48.164;11.572;2024-03-17T00:02:49;3.55;;;1.90;;
16600;SDS011;34891;48.164;11.572;2024-03-17T00:07:51;5.68;;;2.00;;
16600;SDS011;34891;48.164;11.572;2024-03-17T00:12:54;5.05;;;2.22;;
16600;SDS011;34891;48.164;11.572;2024-03-17T00:17:57;2.67;;;1.35;;
16600;SDS011;34891;48.164;11.572;2024-03-17T00:22:59;4.28;;;1.88;;
16600;SDS011;34891;48.164;11.572;2024-03-17T00:28:04;4.80;;;2.17;;
16600;SDS011;34891;48.164;11.572;2024-03-17T00:33:08;4.93;;;2.08;;
16600;SDS011;34891;48.164;11.572;2024-03-17T00:38:10;4.17;;;1.73;;
16600;SDS011;34891;48.164;11.572;2024-03-17T00:43:14;3.92;;;1.70;;
16600;SDS011;34891;48.164;11.572;2024-03-17T00:48:16;4.25;;;2.22;;
16600;SDS011;34891;48.164;11.572;2024-03-17T00:53:18;4.85;;;2.10;;
16600;SDS011;34891;48.164;11.572;2024-03-17T00:58:21;4.30;;;2.13;;
16600;SDS011;34891;48.164;11.572;2024-03-17T01:03:25;4.68;;;2.20;;
16600;SDS011;34891;48.164;11.572;2024-03-17T01:08:28;4.90;;;2.35;;
16600;SDS011;34891;48.164;11.572;2024-03-17T01:13:32;4.82;;;2.15;;
16600;SDS011;34891;48.164;11.572;2024-03-17T01:18:34;4.30;;;2.15;;
16600;SDS011;34891;48.164;11.572;2024-03-17T01:23:37;5.15;;;2.25;;
16600;SDS011;34891;48.164;11.572;2024-03-17T01:28:43;7.32;;;2.28;;
16600;SDS011;34891;48.164;11.572;2024-03-17T01:33:45;5.93;;;2.35;;
16600;SDS011;34891;48.164;11.572;2024-03-17T01:38:47;6.35;;;2.60;;
16600;SDS011;34891;48.164;11.572;2024-03-17T01:43:53;11.27;;;3.03;;
16600;SDS011;34891;48.164;11.572;2024-03-17T01:48:55;6.13;;;2.50;;
16600;SDS011;34891;48.164;11.572;2024-03-17T01:53:58;9.63;;;2.70;;
16600;SDS011;34891;48.164;11.572;2024-03-17T01:59:02;4.97;;;2.72;;
16600;SDS011;34891;48.164;11.572;2024-03-17T02:04:06;6.22;;;2.95;;
16600;SDS011;34891;48.164;11.572;2024-03-17T02:09:08;5.88;;;2.60;;
16600;SDS011;34891;48.164;11.572;2024-03-17T02:14:11;4.82;;;2.60;;
16600;SDS011;34891;48.164;11.572;2024-03-17T02:19:15;9.43;;;2.90;;
16600;SDS011;34891;48.164;11.572;2024-03-17T02:24:19;7.00;;;2.83;;
16600;SDS011;34891;48.164;11.572;2024-03-17T02:29:22;6.13;;;2.58;;
16600;SDS011;34891;48.164;11.572;2024-03-17T02:34:24;6.25;;;2.83;;
16600;SDS011;34891;48.164;11.572;2024-03-17T02:39:27;5.55;;;2.70;;
16600;SDS011;34891;48.164;11.572;2024-03-17T02:44:39;8.45;;;3.17;;
16600;SDS011;34891;48.164;11.572;2024-03-17T02:49:41;5.63;;;2.78;;
16600;SDS011;34891;48.164;11.572;2024-03-17T02:54:45;5.55;;;2.60;;
16600;SDS011;34891;48.164;11.572;2024-03-17T02:59:47;6.30;;;2.90;;
16600;SDS011;34891;48.164;11.572;2024-03-17T03:04:49;7.10;;;2.88;;
16600;SDS011;34891;48.164;11.572;2024-03-17T03:09:52;7.00;;;3.10;;
16600;SDS011;34891;48.164;11.572;2024-03-17T03:19:56;6.80;;;3.03;;
16600;SDS011;34891;48.164;11.572;2024-03-17T03:25:00;5.45;;;2.42;;
16600;SDS011;34891;48.164;11.572;2024-03-17T03:30:03;6.32;;;2.60;;
16600;SDS011;34891;48.164;11.572;2024-03-17T03:40:11;5.93;;;2.42;;
16600;SDS011;34891;48.164;11.572;2024-03-17T03:45:16;5.60;;;2.88;;
16600;SDS011;34891;48.164;11.572;2024-03-17T03:50:19;6.95;;;2.80;;
16600;SDS011;34891;48.164;11.572;2024-03-17T03:55:23;6.10;;;2.77;;
16600;SDS011;34891;48.164;11.572;2024-03-17T04:00:25;5.68;;;2.55;;
16600;SDS011;34891;48.164;11.572;2024-03-17T04:05:33;8.73;;;3.10;;
16600;SDS011;34891;48.164;11.572;2024-03-17T04:10:36;6.67;;;3.10;;
16600;SDS011;34891;48.164;11.572;2024-03-17T04:15:39;5.22;;;2.47;;
16600;SDS011;34891;48.164;11.572;2024-03-17T04:20:41;5.60;;;2.63;;
16600;SDS011;34891;48.164;11.572;2024-03-17T04:25:44;7.50;;;2.63;;
16600;SDS011;34891;48.164;11.572;2024-03-17T04:30:46;7.63;;;3.27;;
16600;SDS011;34891;48.164;11.572;2024-03-17T04:35:48;6.28;;;2.78;;
16600;SDS011;34891;48.164;11.572;2024-03-17T04:40:51;5.95;;;2.90;;
16600;SDS011;34891;48.164;11.572;2024-03-17T04:46:00;7.95;;;3.42;;
16600;SDS011;34891;48.164;11.572;2024-03-17T04:51:04;6.97;;;3.35;;
16600;SDS011;34891;48.164;11.572;2024-03-17T04:56:08;7.15;;;3.15;;
16600;SDS011;34891;48.164;11.572;2024-03-17T05:01:10;6.75;;;3.20;;
16600;SDS011;34891;48.164;11.572;2024-03-17T05:06:13;6.90;;;3.00;;
16600;SDS011;34891;48.164;11.572;2024-03-17T05:11:17;4.80;;;2.53;;
16600;SDS011;34891;48.164;11.572;2024-03-17T05:16:20;7.88;;;3.22;;
16600;SDS011;34891;48.164;11.572;2024-03-17T05:21:25;6.30;;;2.78;;
16600;SDS011;34891;48.164;11.572;2024-03-17T05:26:33;6.70;;;2.50;;
16600;SDS011;34891;48.164;11.572;2024-03-17T05:31:35;5.82;;;2.72;;
16600;SDS011;34891;48.164;11.572;2024-03-17T05:36:39;4.45;;;2.30;;
16600;SDS011;34891;48.164;11.572;2024-03-17T05:41:42;4.22;;;2.25;;
16600;SDS011;34891;48.164;11.572;2024-03-17T05:46:45;5.93;;;2.78;;
16600;SDS011;34891;48.164;11.572;2024-03-17T05:51:47;6.07;;;2.75;;
16600;SDS011;34891;48.164;11.572;2024-03-17T05:56:51;5.05;;;2.55;;
16600;SDS011;34891;48.164;11.572;2024-03-17T06:01:54;5.25;;;2.10;;
16600;SDS011;34891;48.164;11.572;2024-03-17T06:06:57;5.27;;;2.20;;
16600;SDS011;34891;48.164;11.572;2024-03-17T06:12:03;4.80;;;1.58;;
16600;SDS011;34891;48.164;11.572;2024-03-17T06:17:07;4.13;;;2.35;;
16600;SDS011;34891;48.164;11.572;2024-03-17T06:22:09;7.85;;;2.13;;
16600;SDS011;34891;48.164;11.572;2024-03-17T06:27:13;3.75;;;1.80;;
16600;SDS011;34891;48.164;11.572;2024-03-17T06:32:15;5.38;;;2.50;;
16600;SDS011;34891;48.164;11.572;2024-03-17T06:37:18;8.52;;;2.83;;
16600;SDS011;34891;48.164;11.572;2024-03-17T06:42:21;5.75;;;2.10;;
16600;SDS011;34891;48.164;11.572;2024-03-17T06:47:23;4.88;;;1.88;;
16600;SDS011;34891;48.164;11.572;2024-03-17T06:52:26;2.15;;;1.23;;
16600;SDS011;34891;48.164;11.572;2024-03-17T06:57:32;4.75;;;1.60;;
16600;SDS011;34891;48.164;11.572;2024-03-17T07:02:34;6.07;;;2.53;;
16600;SDS011;34891;48.164;11.572;2024-03-17T07:07:36;2.72;;;1.27;;
16600;SDS011;34891;48.164;11.572;2024-03-17T07:12:40;4.72;;;2.47;;
16600;SDS011;34891;48.164;11.572;2024-03-17T07:17:42;3.72;;;2.00;;
16600;SDS011;34891;48.164;11.572;2024-03-17T07:22:44;5.63;;;2.40;;
16600;SDS011;34891;48.164;11.572;2024-03-17T07:27:48;2.20;;;1.55;;
16600;SDS011;34891;48.164;11.572;2024-03-17T07:32:50;3.85;;;2.17;;
16600;SDS011;34891;48.164;11.572;2024-03-17T07:37:52;3.88;;;2.28;;
16600;SDS011;34891;48.164;11.572;2024-03-17T07:42:55;2.88;;;2.00;;
16600;SDS011;34891;48.164;11.572;2024-03-17T07:47:57;4.60;;;1.60;;
16600;SDS011;34891;48.164;11.572;2024-03-17T07:52:59;4.07;;;2.20;;
16600;SDS011;34891;48.164;11.572;2024-03-17T08:03:09;7.30;;;2.47;;
16600;SDS011;34891;48.164;11.572;2024-03-17T08:08:11;5.50;;;2.55;;
16600;SDS011;34891;48.164;11.572;2024-03-17T08:13:13;4.05;;;2.17;;
16600;SDS011;34891;48.164;11.572;2024-03-17T08:18:19;5.40;;;2.45;;
16600;SDS011;34891;48.164;11.572;2024-03-17T08:23:21;4.28;;;2.35;;
16600;SDS011;34891;48.164;11.572;2024-03-17T08:28:23;4.63;;;2.17;;
16600;SDS011;34891;48.164;11.572;2024-03-17T08:33:28;4.03;;;2.05;;
16600;SDS011;34891;48.164;11.572;2024-03-17T08:38:33;3.05;;;1.90;;
16600;SDS011;34891;48.164;11.572;2024-03-17T08:43:35;4.43;;;1.80;;
16600;SDS011;34891;48.164;11.572;2024-03-17T08:48:39;7.00;;;2.60;;
16600;SDS011;34891;48.164;11.572;2024-03-17T08:53:42;5.30;;;2.63;;
16600;SDS011;34891;48.164;11.572;2024-03-17T08:58:44;5.28;;;2.00;;
16600;SDS011;34891;48.164;11.572;2024-03-17T09:03:48;3.83;;;2.40;;
16600;SDS011;34891;48.164;11.572;2024-03-17T09:08:54;5.90;;;2.03;;
16600;SDS011;34891;48.164;11.572;2024-03-17T09:13:56;3.00;;;2.05;;
16600;SDS011;34891;48.164;11.572;2024-03-17T09:19:00;3.45;;;2.45;;
16600;SDS011;34891;48.164;11.572;2024-03-17T09:24:03;2.63;;;1.98;;
16600;SDS011;34891;48.164;11.572;2024-03-17T09:29:05;3.05;;;2.45;;
16600;SDS011;34891;48.164;11.572;2024-03-17T09:34:09;2.75;;;2.45;;
16600;SDS011;34891;48.164;11.572;2024-03-17T09:39:12;3.83;;;2.45;;
16600;SDS011;34891;48.164;11.572;2024-03-17T09:44:15;2.53;;;2.33;;
16600;SDS011;34891;48.164;11.572;2024-03-17T09:49:22;2.42;;;2.22;;
16600;SDS011;34891;48.164;11.572;2024-03-17T09:54:27;2.33;;;2.22;;
16600;SDS011;34891;48.164;11.572;2024-03-17T09:59:30;2.05;;;1.77;;
16600;SDS011;34891;48.164;11.572;2024-03-17T10:04:33;2.10;;;1.90;;
16600;SDS011;34891;48.164;11.572;2024-03-17T10:09:36;2.33;;;2.00;;
16600;SDS011;34891;48.164;11.572;2024-03-17T10:14:37;2.47;;;1.40;;
16600;SDS011;34891;48.164;11.572;2024-03-17T10:19:41;3.38;;;1.90;;
16600;SDS011;34891;48.164;11.572;2024-03-17T10:24:43;1.50;;;1.40;;
16600;SDS011;34891;48.164;11.572;2024-03-17T10:29:44;1.90;;;1.70;;
16600;SDS011;34891;48.164;11.572;2024-03-17T10:34:49;2.72;;;1.60;;
16600;SDS011;34891;48.164;11.572;2024-03-17T10:39:51;1.83;;;1.50;;
16600;SDS011;34891;48.164;11.572;2024-03-17T10:44:55;3.55;;;1.80;;
16600;SDS011;34891;48.164;11.572;2024-03-17T10:49:59;2.28;;;1.67;;
16600;SDS011;34891;48.164;11.572;2024-03-17T10:55:07;2.88;;;1.48;;
16600;SDS011;34891;48.164;11.572;2024-03-17T11:00:11;3.00;;;1.40;;
16600;SDS011;34891;48.164;11.572;2024-03-17T11:05:20;1.52;;;1.20;;
16600;SDS011;34891;48.164;11.572;2024-03-17T11:10:24;3.10;;;1.88;;
16600;SDS011;34891;48.164;11.572;2024-03-17T11:15:35;2.78;;;1.20;;
16600;SDS011;34891;48.164;11.572;2024-03-17T11:20:42;3.35;;;1.10;;
16600;SDS011;34891;48.164;11.572;2024-03-17T11:25:49;1.48;;;1.10;;
16600;SDS011;34891;48.164;11.572;2024-03-17T11:30:53;2.22;;;1.05;;
16600;SDS011;34891;48.164;11.572;2024-03-17T11:46:43;2.08;;;0.95;;
16600;SDS011;34891;48.164;11.572;2024-03-17T11:51:45;2.83;;;1.20;;
16600;SDS011;34891;48.164;11.572;2024-03-17T11:56:49;1.77;;;1.20;;
16600;SDS011;34891;48.164;11.572;2024-03-17T12:01:53;3.08;;;1.48;;
16600;SDS011;34891;48.164;11.572;2024-03-17T12:06:56;1.58;;;0.90;;
16600;SDS011;34891;48.164;11.572;2024-03-17T12:12:01;3.28;;;1.15;;
16600;SDS011;34891;48.164;11.572;2024-03-17T12:17:07;5.30;;;1.60;;
16600;SDS011;34891;48.164;11.572;2024-03-17T12:22:09;2.78;;;1.30;;
16600;SDS011;34891;48.164;11.572;2024-03-17T12:27:17;3.33;;;1.13;;
16600;SDS011;34891;48.164;11.572;2024-03-17T12:32:21;2.25;;;1.40;;
16600;SDS011;34891;48.164;11.572;2024-03-17T12:37:24;3.00;;;1.60;;
16600;SDS011;34891;48.164;11.572;2024-03-17T12:42:30;1.95;;;1.20;;
16600;SDS011;34891;48.164;11.572;2024-03-17T12:47:35;3.47;;;1.33;;
16600;SDS011;34891;48.164;11.572;2024-03-17T12:52:37;1.77;;;1.23;;
16600;SDS011;34891;48.164;11.572;2024-03-17T12:57:39;3.70;;;1.27;;
16600;SDS011;34891;48.164;11.572;2024-03-17T13:03:00;2.35;;;1.30;;
16600;SDS011;34891;48.164;11.572;2024-03-17T13:08:02;2.20;;;1.30;;
16600;SDS011;34891;48.164;11.572;2024-03-17T13:13:07;3.88;;;1.40;;
16600;SDS011;34891;48.164;11.572;2024-03-17T13:18:15;3.65;;;1.20;;
16600;SDS011;34891;48.164;11.572;2024-03-17T13:23:18;1.60;;;1.10;;
16600;SDS011;34891;48.164;11.572;2024-03-17T13:28:23;3.78;;;1.05;;
16600;SDS011;34891;48.164;11.572;2024-03-17T13:33:25;2.55;;;1.35;;
16600;SDS011;34891;48.164;11.572;2024-03-17T13:38:29;3.78;;;1.20;;
16600;SDS011;34891;48.164;11.572;2024-03-17T13:43:32;2.25;;;1.10;;
16600;SDS011;34891;48.164;11.572;2024-03-17T13:48:35;3.65;;;1.27;;
16600;SDS011;34891;48.164;11.572;2024-03-17T13:53:37;3.25;;;1.17;;
16600;SDS011;34891;48.164;11.572;2024-03-17T13:58:40;1.67;;;1.05;;
16600;SDS011;34891;48.164;11.572;2024-03-17T14:03:43;4.68;;;1.05;;
16600;SDS011;34891;48.164;11.572;2024-03-17T14:08:46;3.80;;;1.60;;
16600;SDS011;34891;48.164;11.572;2024-03-17T14:13:48;3.85;;;1.42;;
16600;SDS011;34891;48.164;11.572;2024-03-17T14:18:53;4.20;;;1.20;;
16600;SDS011;34891;48.164;11.572;2024-03-17T14:23:55;2.60;;;0.90;;
16600;SDS011;34891;48.164;11.572;2024-03-17T14:28:57;4.18;;;1.08;;
16600;SDS011;34891;48.164;11.572;2024-03-17T14:39:04;6.18;;;1.45;;
16600;SDS011;34891;48.164;11.572;2024-03-17T14:49:08;1.85;;;1.17;;
16600;SDS011;34891;48.164;11.572;2024-03-17T14:54:14;2.47;;;1.20;;
16600;SDS011;34891;48.164;11.572;2024-03-17T14:59:16;3.00;;;1.30;;
16600;SDS011;34891;48.164;11.572;2024-03-17T15:04:19;2.63;;;1.30;;
16600;SDS011;34891;48.164;11.572;2024-03-17T15:09:22;3.25;;;1.05;;
16600;SDS011;34891;48.164;11.572;2024-03-17T15:14:24;2.65;;;0.93;;
16600;SDS011;34891;48.164;11.572;2024-03-17T15:19:29;4.18;;;1.20;;
16600;SDS011;34891;48.164;11.572;2024-03-17T15:24:34;6.07;;;1.73;;
16600;SDS011;34891;48.164;11.572;2024-03-17T15:29:37;10.95;;;4.35;;
16600;SDS011;34891;48.164;11.572;2024-03-17T15:39:43;3.70;;;1.30;;
16600;SDS011;34891;48.164;11.572;2024-03-17T15:44:46;6.13;;;1.30;;
16600;SDS011;34891;48.164;11.572;2024-03-17T15:49:51;2.35;;;1.30;;
16600;SDS011;34891;48.164;11.572;2024-03-17T15:54:55;4.30;;;1.13;;
16600;SDS011;34891;48.164;11.572;2024-03-17T15:59:57;4.65;;;1.15;;
16600;SDS011;34891;48.164;11.572;2024-03-17T16:04:59;3.72;;;1.20;;
16600;SDS011;34891;48.164;11.572;2024-03-17T16:10:04;3.15;;;1.20;;
16600;SDS011;34891;48.164;11.572;2024-03-17T16:15:10;2.55;;;1.13;;
16600;SDS011;34891;48.164;11.572;2024-03-17T16:20:18;5.72;;;1.98;;
16600;SDS011;34891;48.164;11.572;2024-03-17T16:25:30;6.13;;;1.60;;
16600;SDS011;34891;48.164;11.572;2024-03-17T16:30:32;2.00;;;1.20;;
16600;SDS011;34891;48.164;11.572;2024-03-17T16:35:35;3.13;;;1.30;;
16600;SDS011;34891;48.164;11.572;2024-03-17T16:40:47;19.20;;;6.95;;
16600;SDS011;34891;48.164;11.572;2024-03-17T16:45:56;4.03;;;1.60;;
16600;SDS011;34891;48.164;11.572;2024-03-17T16:51:00;3.95;;;1.30;;
16600;SDS011;34891;48.164;11.572;2024-03-17T17:01:08;3.47;;;1.60;;
16600;SDS011;34891;48.164;11.572;2024-03-17T17:06:12;4.97;;;1.70;;
16600;SDS011;34891;48.164;11.572;2024-03-17T17:11:16;4.40;;;1.70;;
16600;SDS011;34891;48.164;11.572;2024-03-17T17:16:20;4.73;;;1.90;;
16600;SDS011;34891;48.164;11.572;2024-03-17T17:21:23;3.65;;;1.55;;
16600;SDS011;34891;48.164;11.572;2024-03-17T17:26:27;5.67;;;1.90;;
16600;SDS011;34891;48.164;11.572;2024-03-17T17:31:33;2.42;;;1.48;;
16600;SDS011;34891;48.164;11.572;2024-03-17T17:36:35;3.40;;;1.58;;
16600;SDS011;34891;48.164;11.572;2024-03-17T17:41:38;5.00;;;2.00;;
16600;SDS011;34891;48.164;11.572;2024-03-17T17:46:43;4.82;;;1.80;;
16600;SDS011;34891;48.164;11.572;2024-03-17T17:51:45;3.63;;;1.65;;
16600;SDS011;34891;48.164;11.572;2024-03-17T17:56:57;4.07;;;2.08;;
16600;SDS011;34891;48.164;11.572;2024-03-17T18:02:01;5.50;;;2.65;;
16600;SDS011;34891;48.164;11.572;2024-03-17T18:07:03;6.03;;;2.40;;
16600;SDS011;34891;48.164;11.572;2024-03-17T18:12:06;5.95;;;2.28;;
16600;SDS011;34891;48.164;11.572;2024-03-17T18:17:09;5.72;;;2.20;;
16600;SDS011;34891;48.164;11.572;2024-03-17T18:22:12;5.88;;;2.28;;
16600;SDS011;34891;48.164;11.572;2024-03-17T18:27:14;3.97;;;2.33;;
16600;SDS011;34891;48.164;11.572;2024-03-17T18:32:18;8.70;;;2.58;;
16600;SDS011;34891;48.164;11.572;2024-03-17T18:37:20;7.60;;;3.58;;
16600;SDS011;34891;48.164;11.572;2024-03-17T18:42:23;9.03;;;3.70;;
16600;SDS011;34891;48.164;11.572;2024-03-17T18:47:27;6.32;;;2.83;;
16600;SDS011;34891;48.164;11.572;2024-03-17T18:52:29;6.82;;;3.03;;
16600;SDS011;34891;48.164;11.572;2024-03-17T18:57:31;8.70;;;3.85;;
16600;SDS011;34891;48.164;11.572;2024-03-17T19:02:35;5.80;;;2.42;;
16600;SDS011;34891;48.164;11.572;2024-03-17T19:07:38;7.65;;;3.00;;
16600;SDS011;34891;48.164;11.572;2024-03-17T19:12:40;5.80;;;3.03;;
16600;SDS011;34891;48.164;11.572;2024-03-17T19:17:44;5.32;;;2.65;;
16600;SDS011;34891;48.164;11.572;2024-03-17T19:22:46;7.35;;;3.22;;
16600;SDS011;34891;48.164;11.572;2024-03-17T19:27:49;5.93;;;2.67;;
16600;SDS011;34891;48.164;11.572;2024-03-17T19:32:54;11.00;;;3.53;;
16600;SDS011;34891;48.164;11.572;2024-03-17T19:37:57;6.85;;;3.13;;
16600;SDS011;34891;48.164;11.572;2024-03-17T19:43:00;6.07;;;3.60;;
16600;SDS011;34891;48.164;11.572;2024-03-17T19:48:05;7.90;;;2.65;;
16600;SDS011;34891;48.164;11.572;2024-03-17T19:53:08;7.18;;;3.47;;
16600;SDS011;34891;48.164;11.572;2024-03-17T19:58:11;7.90;;;3.60;;
16600;SDS011;34891;48.164;11.572;2024-03-17T20:03:15;5.40;;;3.03;;
16600;SDS011;34891;48.164;11.572;2024-03-17T20:08:24;9.82;;;4.35;;
16600;SDS011;34891;48.164;11.572;2024-03-17T20:13:28;6.85;;;2.67;;
16600;SDS011;34891;48.164;11.572;2024-03-17T20:18:31;2.65;;;1.27;;
16600;SDS011;34891;48.164;11.572;2024-03-17T20:23:36;8.80;;;3.70;;
16600;SDS011;34891;48.164;11.572;2024-03-17T20:28:39;6.50;;;2.83;;
16600;SDS011;34891;48.164;11.572;2024-03-17T20:33:43;22.50;;;6.93;;
16600;SDS011;34891;48.164;11.572;2024-03-17T20:38:46;17.70;;;6.97;;
16600;SDS011;34891;48.164;11.572;2024-03-17T20:43:50;13.48;;;6.25;;
16600;SDS011;34891;48.164;11.572;2024-03-17T20:48:53;9.05;;;3.30;;
16600;SDS011;34891;48.164;11.572;2024-03-17T20:53:56;5.25;;;2.13;;
16600;SDS011;34891;48.164;11.572;2024-03-17T20:58:58;8.63;;;3.65;;
16600;SDS011;34891;48.164;11.572;2024-03-17T21:04:07;7.60;;;3.30;;
16600;SDS011;34891;48.164;11.572;2024-03-17T21:09:10;9.82;;;3.80;;
16600;SDS011;34891;48.164;11.572;2024-03-17T21:14:15;8.20;;;2.67;;
16600;SDS011;34891;48.164;11.572;2024-03-17T21:19:20;7.38;;;2.55;;
16600;SDS011;34891;48.164;11.572;2024-03-17T21:24:27;6.07;;;3.33;;
16600;SDS011;34891;48.164;11.572;2024-03-17T21:29:43;6.65;;;3.42;;
16600;SDS011;34891;48.164;11.572;2024-03-17T21:34:53;8.70;;;3.83;;
16600;SDS011;34891;48.164;11.572;2024-03-17T21:39:58;9.85;;;3.65;;
16600;SDS011;34891;48.164;11.572;2024-03-17T21:45:00;9.10;;;3.88;;
16600;SDS011;34891;48.164;11.572;2024-03-17T21:50:08;8.32;;;3.83;;
16600;SDS011;34891;48.164;11.572;2024-03-17T21:55:13;7.97;;;3.63;;
16600;SDS011;34891;48.164;11.572;2024-03-17T22:00:15;8.50;;;3.50;;
16600;SDS011;34891;48.164;11.572;2024-03-17T22:05:22;8.95;;;3.30;;
16600;SDS011;34891;48.164;11.572;2024-03-17T22:10:23;10.33;;;4.37;;
16600;SDS011;34891;48.164;11.572;2024-03-17T22:15:25;7.55;;;3.50;;
16600;SDS011;34891;48.164;11.572;2024-03-17T22:20:29;7.80;;;3.83;;
16600;SDS011;34891;48.164;11.572;2024-03-17T22:25:31;7.72;;;3.22;;
16600;SDS011;34891;48.164;11.572;2024-03-17T22:30:33;7.10;;;3.05;;
16600;SDS011;34891;48.164;11.572;2024-03-17T22:35:37;9.18;;;3.28;;
16600;SDS011;34891;48.164;11.572;2024-03-17T22:40:39;10.73;;;3.45;;
16600;SDS011;34891;48.164;11.572;2024-03-17T22:45:41;9.95;;;3.45;;
16600;SDS011;34891;48.164;11.572;2024-03-17T22:50:46;7.03;;;2.83;;
16600;SDS011;34891;48.164;11.572;2024-03-17T22:55:48;7.88;;;2.92;;
16600;SDS011;34891;48.164;11.572;2024-03-17T23:00:49;6.47;;;2.90;;
16600;SDS011;34891;48.164;11.572;2024-03-17T23:05:55;6.45;;;2.17;;
16600;SDS011;34891;48.164;11.572;2024-03-17T23:11:00;6.95;;;2.65;;
16600;SDS011;34891;48.164;11.572;2024-03-17T23:16:03;6.07;;;1.90;;
16600;SDS011;34891;48.164;11.572;2024-03-17T23:21:08;3.20;;;1.20;;
16600;SDS011;34891;48.164;11.572;2024-03-17T23:26:10;8.02;;;1.60;;
16600;SDS011;34891;48.164;11.572;2024-03-17T23:31:21;2.28;;;0.75;;
16600;SDS011;34891;48.164;11.572;2024-03-17T23:36:24;1.65;;;0.77;;
16600;SDS011;34891;48.164;11.572;2024-03-17T23:41:28;6.85;;;1.60;;
16600;SDS011;34891;48.164;11.572;2024-03-17T23:46:30;5.50;;;1.48;;
16600;SDS011;34891;48.164;11.572;2024-03-17T23:51:33;5.38;;;1.50;;
16600;SDS011;34891;48.164;11.572;2024-03-17T23:56:37;2.08;;;1.23;;
